BTK7530 WAHI-WIII
Flight info
| Callsign | BTK7530 |
|---|---|
| Flight time | 0h 45m |
| Altitude | 34000 |
| Route | CA2L CA W17S IMU IMU2G |
| Aircraft | B738/M-VGDW/C |
Departure
| Time | 2026-04-23 16:50 |
|---|---|
| Airport | Yogyakarta International Airport (WAHI) |
Arrival
| Time | 2026-04-23 17:36 |
|---|---|
| Airport | Soekarno-Hatta International Airport (WIII) |
| Time | Latitude | Longitude | Altitude | Speed | Heading |
|---|---|---|---|---|---|
| 2026-04-23 16:34 | -7.90109 | 110.05880 | 38 ft | 0 kts | 20° |
| 2026-04-23 16:41 | -7.90114 | 110.05878 | 39 ft | 4 kts | 20° |
| 2026-04-23 16:41 | -7.90140 | 110.05870 | 40 ft | 4 kts | 15° |
| 2026-04-23 16:42 | -7.90166 | 110.05863 | 39 ft | 4 kts | 9° |
| 2026-04-23 16:42 | -7.90193 | 110.05861 | 37 ft | 4 kts | 355° |
| 2026-04-23 16:42 | -7.90216 | 110.05868 | 37 ft | 4 kts | 307° |
| 2026-04-23 16:42 | -7.90221 | 110.05877 | 36 ft | 1 kts | 290° |
| 2026-04-23 16:44 | -7.90219 | 110.05871 | 36 ft | 3 kts | 290° |
| 2026-04-23 16:45 | -7.90202 | 110.05826 | 40 ft | 11 kts | 291° |
| 2026-04-23 16:45 | -7.90173 | 110.05747 | 40 ft | 12 kts | 290° |
| 2026-04-23 16:45 | -7.90146 | 110.05674 | 40 ft | 8 kts | 290° |
| 2026-04-23 16:45 | -7.90123 | 110.05612 | 38 ft | 12 kts | 291° |
| 2026-04-23 16:46 | -7.90086 | 110.05515 | 40 ft | 17 kts | 290° |
| 2026-04-23 16:46 | -7.90042 | 110.05396 | 40 ft | 19 kts | 291° |
| 2026-04-23 16:46 | -7.89992 | 110.05265 | 38 ft | 21 kts | 291° |
| 2026-04-23 16:46 | -7.89990 | 110.05148 | 40 ft | 18 kts | 210° |
| 2026-04-23 16:47 | -7.90100 | 110.05095 | 39 ft | 17 kts | 231° |
| 2026-04-23 16:47 | -7.90079 | 110.04981 | 39 ft | 17 kts | 290° |
| 2026-04-23 16:47 | -7.90039 | 110.04872 | 39 ft | 16 kts | 290° |
| 2026-04-23 16:47 | -7.90001 | 110.04767 | 41 ft | 16 kts | 290° |
| 2026-04-23 16:48 | -7.89964 | 110.04665 | 41 ft | 16 kts | 290° |
| 2026-04-23 16:48 | -7.89919 | 110.04541 | 43 ft | 21 kts | 290° |
| 2026-04-23 16:48 | -7.89865 | 110.04395 | 41 ft | 17 kts | 290° |
| 2026-04-23 16:48 | -7.89898 | 110.04309 | 42 ft | 16 kts | 171° |
| 2026-04-23 16:49 | -7.90000 | 110.04355 | 44 ft | 16 kts | 160° |
| 2026-04-23 16:49 | -7.90054 | 110.04411 | 45 ft | 2 kts | 110° |
| 2026-04-23 16:49 | -7.90054 | 110.04412 | 45 ft | 0 kts | 110° |
| 2026-04-23 16:49 | -7.90070 | 110.04456 | 42 ft | 28 kts | 110° |
| 2026-04-23 16:50 | -7.90226 | 110.04880 | 40 ft | 100 kts | 110° |
| 2026-04-23 16:50 | -7.90538 | 110.05746 | 49 ft | 160 kts | 109° |
| 2026-04-23 16:50 | -7.90939 | 110.06870 | 533 ft | 175 kts | 109° |
| 2026-04-23 16:50 | -7.91495 | 110.07975 | 1298 ft | 179 kts | 134° |
| 2026-04-23 16:51 | -7.92627 | 110.08566 | 1899 ft | 193 kts | 173° |
| 2026-04-23 16:51 | -7.94040 | 110.08578 | 2318 ft | 214 kts | 181° |
| 2026-04-23 16:51 | -7.95591 | 110.08607 | 2616 ft | 231 kts | 176° |
| 2026-04-23 16:51 | -7.97285 | 110.08722 | 2775 ft | 257 kts | 175° |
| 2026-04-23 16:52 | -7.99131 | 110.08893 | 3236 ft | 271 kts | 174° |
| 2026-04-23 16:52 | -8.01021 | 110.09090 | 3959 ft | 275 kts | 173° |
| 2026-04-23 16:52 | -8.02930 | 110.09269 | 4720 ft | 278 kts | 180° |
| 2026-04-23 16:52 | -8.04787 | 110.08740 | 5423 ft | 282 kts | 214° |
| 2026-04-23 16:53 | -8.06073 | 110.07265 | 6170 ft | 283 kts | 245° |
| 2026-04-23 16:53 | -8.06552 | 110.05350 | 6852 ft | 284 kts | 270° |
| 2026-04-23 16:53 | -8.06217 | 110.03395 | 7512 ft | 285 kts | 294° |
| 2026-04-23 16:53 | -8.05179 | 110.01728 | 8182 ft | 286 kts | 311° |
| 2026-04-23 16:54 | -8.03849 | 110.00225 | 8857 ft | 289 kts | 314° |
| 2026-04-23 16:54 | -8.02454 | 109.98742 | 9522 ft | 293 kts | 315° |
| 2026-04-23 16:54 | -8.01032 | 109.97248 | 10162 ft | 296 kts | 314° |
| 2026-04-23 16:54 | -7.99566 | 109.95704 | 10421 ft | 315 kts | 314° |
| 2026-04-23 16:55 | -7.98005 | 109.94049 | 10573 ft | 335 kts | 314° |
| 2026-04-23 16:55 | -7.96357 | 109.92292 | 10719 ft | 354 kts | 314° |
| 2026-04-23 16:55 | -7.94640 | 109.90452 | 11035 ft | 364 kts | 314° |
| 2026-04-23 16:55 | -7.92894 | 109.88574 | 11526 ft | 368 kts | 314° |
| 2026-04-23 16:56 | -7.91140 | 109.86681 | 12107 ft | 370 kts | 314° |
| 2026-04-23 16:56 | -7.89377 | 109.84778 | 12691 ft | 373 kts | 314° |
| 2026-04-23 16:56 | -7.87599 | 109.82856 | 13252 ft | 376 kts | 314° |
| 2026-04-23 16:56 | -7.85835 | 109.80949 | 13801 ft | 379 kts | 314° |
| 2026-04-23 16:57 | -7.84027 | 109.78994 | 14274 ft | 383 kts | 313° |
| 2026-04-23 16:57 | -7.82203 | 109.77022 | 14775 ft | 386 kts | 313° |
| 2026-04-23 16:57 | -7.80362 | 109.75033 | 15308 ft | 389 kts | 313° |
| 2026-04-23 16:57 | -7.78511 | 109.73032 | 15831 ft | 391 kts | 313° |
| 2026-04-23 16:58 | -7.76647 | 109.71018 | 16341 ft | 394 kts | 313° |
| 2026-04-23 16:58 | -7.74769 | 109.68988 | 16836 ft | 398 kts | 313° |
| 2026-04-23 16:58 | -7.72873 | 109.66940 | 17330 ft | 401 kts | 313° |
| 2026-04-23 16:58 | -7.70962 | 109.64876 | 17825 ft | 404 kts | 313° |
| 2026-04-23 16:59 | -7.69039 | 109.62799 | 18278 ft | 407 kts | 313° |
| 2026-04-23 16:59 | -7.67101 | 109.60706 | 18700 ft | 409 kts | 313° |
| 2026-04-23 16:59 | -7.65154 | 109.58604 | 19117 ft | 411 kts | 313° |
| 2026-04-23 16:59 | -7.63193 | 109.56488 | 19555 ft | 413 kts | 313° |
| 2026-04-23 17:00 | -7.61228 | 109.54366 | 19973 ft | 415 kts | 313° |
| 2026-04-23 17:00 | -7.59249 | 109.52231 | 20361 ft | 418 kts | 313° |
| 2026-04-23 17:00 | -7.57281 | 109.50108 | 20753 ft | 420 kts | 313° |
| 2026-04-23 17:00 | -7.55280 | 109.47948 | 21132 ft | 423 kts | 313° |
| 2026-04-23 17:01 | -7.53263 | 109.45772 | 21508 ft | 425 kts | 313° |
| 2026-04-23 17:01 | -7.51236 | 109.43587 | 21870 ft | 428 kts | 313° |
| 2026-04-23 17:01 | -7.49196 | 109.41386 | 22230 ft | 430 kts | 314° |
| 2026-04-23 17:01 | -7.47145 | 109.39175 | 22596 ft | 433 kts | 313° |
| 2026-04-23 17:02 | -7.45782 | 109.37706 | 22811 ft | 434 kts | 313° |
| 2026-04-23 17:02 | -7.43007 | 109.34714 | 23265 ft | 437 kts | 314° |
| 2026-04-23 17:02 | -7.40930 | 109.32476 | 23606 ft | 439 kts | 313° |
| 2026-04-23 17:02 | -7.38839 | 109.30222 | 23893 ft | 440 kts | 314° |
| 2026-04-23 17:03 | -7.36767 | 109.27990 | 24176 ft | 442 kts | 314° |
| 2026-04-23 17:03 | -7.34662 | 109.25722 | 24445 ft | 444 kts | 314° |
| 2026-04-23 17:03 | -7.32546 | 109.23444 | 24686 ft | 447 kts | 314° |
| 2026-04-23 17:03 | -7.30419 | 109.21153 | 24943 ft | 449 kts | 313° |
| 2026-04-23 17:04 | -7.28281 | 109.18851 | 25187 ft | 451 kts | 313° |
| 2026-04-23 17:04 | -7.26132 | 109.16537 | 25445 ft | 452 kts | 313° |
| 2026-04-23 17:04 | -7.23980 | 109.14220 | 25702 ft | 454 kts | 314° |
| 2026-04-23 17:04 | -7.21816 | 109.11890 | 25946 ft | 456 kts | 314° |
| 2026-04-23 17:05 | -7.19645 | 109.09554 | 26225 ft | 457 kts | 313° |
| 2026-04-23 17:05 | -7.17467 | 109.07211 | 26493 ft | 459 kts | 314° |
| 2026-04-23 17:05 | -7.15282 | 109.04860 | 26698 ft | 461 kts | 313° |
| 2026-04-23 17:05 | -7.13083 | 109.02494 | 26898 ft | 464 kts | 313° |
| 2026-04-23 17:06 | -7.10873 | 109.00117 | 27138 ft | 465 kts | 313° |
| 2026-04-23 17:06 | -7.08658 | 108.97736 | 27401 ft | 466 kts | 313° |
| 2026-04-23 17:06 | -7.06438 | 108.95349 | 27640 ft | 468 kts | 314° |
| 2026-04-23 17:06 | -7.04217 | 108.92961 | 27864 ft | 469 kts | 313° |
| 2026-04-23 17:07 | -7.01973 | 108.90549 | 28067 ft | 471 kts | 314° |
| 2026-04-23 17:07 | -6.99731 | 108.88139 | 28274 ft | 473 kts | 313° |
| 2026-04-23 17:07 | -6.97473 | 108.85713 | 28491 ft | 475 kts | 313° |
| 2026-04-23 17:07 | -6.95215 | 108.83287 | 28711 ft | 476 kts | 314° |
| 2026-04-23 17:08 | -6.92942 | 108.80845 | 28919 ft | 477 kts | 314° |
| 2026-04-23 17:08 | -6.90668 | 108.78403 | 29109 ft | 479 kts | 313° |
| 2026-04-23 17:08 | -6.88386 | 108.75952 | 29308 ft | 480 kts | 314° |
| 2026-04-23 17:08 | -6.86099 | 108.73496 | 29519 ft | 481 kts | 314° |
| 2026-04-23 17:09 | -6.83807 | 108.71035 | 29758 ft | 482 kts | 314° |
| 2026-04-23 17:09 | -6.81545 | 108.68606 | 29907 ft | 484 kts | 314° |
| 2026-04-23 17:09 | -6.76920 | 108.63641 | 29892 ft | 485 kts | 314° |
| 2026-04-23 17:10 | -6.72331 | 108.58720 | 29878 ft | 478 kts | 314° |
| 2026-04-23 17:10 | -6.67320 | 108.54460 | 29771 ft | 465 kts | 330° |
| 2026-04-23 17:11 | -6.64525 | 108.52869 | 29123 ft | 461 kts | 332° |
| 2026-04-23 17:11 | -6.61701 | 108.51335 | 28364 ft | 461 kts | 332° |
| 2026-04-23 17:11 | -6.58902 | 108.49821 | 28148 ft | 454 kts | 332° |
| 2026-04-23 17:11 | -6.56109 | 108.48296 | 28054 ft | 461 kts | 332° |
| 2026-04-23 17:12 | -6.53294 | 108.46739 | 27931 ft | 456 kts | 332° |
| 2026-04-23 17:12 | -6.50573 | 108.45220 | 27881 ft | 439 kts | 331° |
| 2026-04-23 17:12 | -6.47949 | 108.43747 | 27857 ft | 424 kts | 331° |
| 2026-04-23 17:12 | -6.45422 | 108.42327 | 27859 ft | 411 kts | 331° |
| 2026-04-23 17:13 | -6.42930 | 108.40927 | 27873 ft | 410 kts | 331° |
| 2026-04-23 17:13 | -6.40429 | 108.39525 | 27885 ft | 414 kts | 331° |
| 2026-04-23 17:13 | -6.37900 | 108.38106 | 27890 ft | 418 kts | 331° |
| 2026-04-23 17:13 | -6.35395 | 108.36702 | 27877 ft | 417 kts | 331° |
| 2026-04-23 17:14 | -6.32862 | 108.35282 | 27866 ft | 416 kts | 331° |
| 2026-04-23 17:14 | -6.30362 | 108.33820 | 27859 ft | 415 kts | 325° |
| 2026-04-23 17:14 | -6.28215 | 108.31862 | 27633 ft | 418 kts | 314° |
| 2026-04-23 17:14 | -6.26224 | 108.29736 | 27397 ft | 416 kts | 313° |
| 2026-04-23 17:15 | -6.24254 | 108.27615 | 27149 ft | 412 kts | 314° |
| 2026-04-23 17:15 | -6.22293 | 108.25526 | 26906 ft | 410 kts | 314° |
| 2026-04-23 17:15 | -6.20327 | 108.23459 | 26667 ft | 408 kts | 314° |
| 2026-04-23 17:15 | -6.18357 | 108.21407 | 26430 ft | 406 kts | 314° |
| 2026-04-23 17:16 | -6.16394 | 108.19372 | 26193 ft | 405 kts | 314° |
| 2026-04-23 17:16 | -6.14437 | 108.17345 | 25973 ft | 403 kts | 314° |
| 2026-04-23 17:16 | -6.12474 | 108.15311 | 25912 ft | 406 kts | 315° |
| 2026-04-23 17:16 | -6.10499 | 108.13274 | 25691 ft | 408 kts | 315° |
| 2026-04-23 17:17 | -6.08523 | 108.11245 | 25450 ft | 404 kts | 315° |
| 2026-04-23 17:17 | -6.06561 | 108.09233 | 25096 ft | 400 kts | 315° |
| 2026-04-23 17:17 | -6.05274 | 108.07911 | 24844 ft | 398 kts | 315° |
| 2026-04-23 17:17 | -6.02693 | 108.05261 | 24309 ft | 396 kts | 315° |
| 2026-04-23 17:18 | -5.98856 | 108.01321 | 23476 ft | 393 kts | 315° |
| 2026-04-23 17:18 | -5.97141 | 107.99201 | 22968 ft | 393 kts | 298° |
| 2026-04-23 17:18 | -5.96216 | 107.96643 | 22519 ft | 390 kts | 280° |
| 2026-04-23 17:19 | -5.96044 | 107.93931 | 22050 ft | 389 kts | 271° |
| 2026-04-23 17:19 | -5.96060 | 107.91220 | 21563 ft | 388 kts | 270° |
| 2026-04-23 17:19 | -5.96100 | 107.88509 | 21081 ft | 387 kts | 269° |
| 2026-04-23 17:19 | -5.96134 | 107.85804 | 20609 ft | 387 kts | 270° |
| 2026-04-23 17:20 | -5.96156 | 107.83142 | 20145 ft | 386 kts | 270° |
| 2026-04-23 17:20 | -5.96170 | 107.77748 | 19180 ft | 386 kts | 270° |
| 2026-04-23 17:21 | -5.96169 | 107.72350 | 18223 ft | 386 kts | 270° |
| 2026-04-23 17:21 | -5.96168 | 107.69658 | 17687 ft | 385 kts | 270° |
| 2026-04-23 17:21 | -5.96167 | 107.64315 | 16924 ft | 375 kts | 270° |
| 2026-04-23 17:22 | -5.96167 | 107.61743 | 16864 ft | 361 kts | 270° |
| 2026-04-23 17:22 | -5.96169 | 107.56889 | 16832 ft | 334 kts | 270° |
| 2026-04-23 17:23 | -5.96170 | 107.52283 | 16209 ft | 329 kts | 270° |
| 2026-04-23 17:23 | -5.96169 | 107.49982 | 15843 ft | 329 kts | 270° |
| 2026-04-23 17:23 | -5.96169 | 107.45401 | 15195 ft | 326 kts | 270° |
| 2026-04-23 17:24 | -5.96169 | 107.43129 | 14880 ft | 325 kts | 270° |
| 2026-04-23 17:24 | -5.96169 | 107.40899 | 14601 ft | 322 kts | 270° |
| 2026-04-23 17:24 | -5.96168 | 107.36402 | 14055 ft | 316 kts | 270° |
| 2026-04-23 17:25 | -5.96167 | 107.32146 | 13781 ft | 296 kts | 271° |
| 2026-04-23 17:25 | -5.96166 | 107.30104 | 13450 ft | 289 kts | 271° |
| 2026-04-23 17:26 | -5.96161 | 107.26089 | 12543 ft | 286 kts | 271° |
| 2026-04-23 17:26 | -5.96156 | 107.22106 | 11684 ft | 283 kts | 270° |
| 2026-04-23 17:27 | -5.96150 | 107.18176 | 10850 ft | 280 kts | 271° |
| 2026-04-23 17:27 | -5.96148 | 107.16222 | 10438 ft | 279 kts | 271° |
| 2026-04-23 17:27 | -5.96145 | 107.14286 | 10070 ft | 276 kts | 271° |
| 2026-04-23 17:27 | -5.96143 | 107.12384 | 9871 ft | 266 kts | 271° |
| 2026-04-23 17:28 | -5.96141 | 107.11168 | 9737 ft | 260 kts | 271° |
| 2026-04-23 17:28 | -5.96540 | 107.08858 | 9365 ft | 252 kts | 249° |
| 2026-04-23 17:28 | -5.97204 | 107.07233 | 8982 ft | 251 kts | 248° |
| 2026-04-23 17:28 | -5.97861 | 107.05616 | 8618 ft | 249 kts | 248° |
| 2026-04-23 17:29 | -5.98510 | 107.04003 | 8249 ft | 248 kts | 249° |
| 2026-04-23 17:29 | -5.99149 | 107.02394 | 7890 ft | 247 kts | 249° |
| 2026-04-23 17:29 | -6.00200 | 106.99724 | 7279 ft | 246 kts | 249° |
| 2026-04-23 17:30 | -6.00827 | 106.98129 | 6962 ft | 244 kts | 248° |
| 2026-04-23 17:30 | -6.02092 | 106.94982 | 6277 ft | 242 kts | 248° |
| 2026-04-23 17:30 | -6.02719 | 106.93412 | 5900 ft | 242 kts | 248° |
| 2026-04-23 17:31 | -6.03346 | 106.91853 | 5564 ft | 240 kts | 248° |
| 2026-04-23 17:31 | -6.03982 | 106.90290 | 5101 ft | 244 kts | 248° |
| 2026-04-23 17:31 | -6.04622 | 106.88690 | 4640 ft | 248 kts | 248° |
| 2026-04-23 17:31 | -6.05263 | 106.87073 | 4158 ft | 252 kts | 248° |
| 2026-04-23 17:32 | -6.05917 | 106.85417 | 3653 ft | 256 kts | 248° |
| 2026-04-23 17:32 | -6.06572 | 106.83761 | 3316 ft | 254 kts | 248° |
| 2026-04-23 17:32 | -6.07219 | 106.82126 | 3003 ft | 250 kts | 248° |
| 2026-04-23 17:32 | -6.07856 | 106.80515 | 2688 ft | 245 kts | 248° |
| 2026-04-23 17:33 | -6.08474 | 106.78952 | 2366 ft | 236 kts | 248° |
| 2026-04-23 17:33 | -6.09061 | 106.77469 | 2077 ft | 226 kts | 248° |
| 2026-04-23 17:33 | -6.09629 | 106.76033 | 1796 ft | 215 kts | 248° |
| 2026-04-23 17:33 | -6.10169 | 106.74669 | 1520 ft | 201 kts | 248° |
| 2026-04-23 17:34 | -6.10662 | 106.73422 | 1299 ft | 186 kts | 248° |
| 2026-04-23 17:34 | -6.11122 | 106.72260 | 1036 ft | 172 kts | 247° |
| 2026-04-23 17:34 | -6.11942 | 106.70157 | 605 ft | 157 kts | 248° |
| 2026-04-23 17:35 | -6.12332 | 106.69135 | 384 ft | 155 kts | 247° |
| 2026-04-23 17:35 | -6.13127 | 106.67168 | 50 ft | 150 kts | 246° |
| 2026-04-23 17:35 | -6.13486 | 106.66276 | 37 ft | 120 kts | 249° |
| 2026-04-23 17:36 | -6.13739 | 106.65635 | 37 ft | 78 kts | 248° |
| 2026-04-23 17:36 | -6.13875 | 106.65289 | 37 ft | 32 kts | 257° |
| 2026-04-23 17:36 | -6.13883 | 106.65074 | 39 ft | 30 kts | 278° |
| 2026-04-23 17:36 | -6.13773 | 106.64965 | 38 ft | 22 kts | 339° |
| 2026-04-23 17:37 | -6.13631 | 106.64908 | 37 ft | 22 kts | 338° |
| 2026-04-23 17:37 | -6.13492 | 106.64853 | 37 ft | 21 kts | 339° |
| 2026-04-23 17:37 | -6.13228 | 106.64748 | 37 ft | 20 kts | 339° |
| 2026-04-23 17:38 | -6.13102 | 106.64698 | 37 ft | 19 kts | 338° |
| 2026-04-23 17:38 | -6.12980 | 106.64649 | 37 ft | 19 kts | 338° |
| 2026-04-23 17:38 | -6.12862 | 106.64602 | 35 ft | 18 kts | 338° |
| 2026-04-23 17:38 | -6.12747 | 106.64557 | 37 ft | 17 kts | 338° |
| 2026-04-23 17:39 | -6.12638 | 106.64513 | 36 ft | 17 kts | 338° |
| 2026-04-23 17:39 | -6.12532 | 106.64472 | 37 ft | 16 kts | 339° |
| 2026-04-23 17:39 | -6.12430 | 106.64431 | 37 ft | 15 kts | 338° |
| 2026-04-23 17:39 | -6.12332 | 106.64392 | 37 ft | 15 kts | 339° |
| 2026-04-23 17:40 | -6.12224 | 106.64349 | 37 ft | 18 kts | 338° |
| 2026-04-23 17:40 | -6.12104 | 106.64345 | 37 ft | 19 kts | 56° |
| 2026-04-23 17:40 | -6.12052 | 106.64473 | 37 ft | 21 kts | 68° |
| 2026-04-23 17:40 | -6.11997 | 106.64613 | 36 ft | 22 kts | 68° |
| 2026-04-23 17:41 | -6.11936 | 106.64762 | 37 ft | 24 kts | 68° |
| 2026-04-23 17:41 | -6.11809 | 106.65083 | 37 ft | 24 kts | 68° |
| 2026-04-23 17:41 | -6.11777 | 106.65192 | 37 ft | 13 kts | 102° |
| 2026-04-23 17:42 | -6.11908 | 106.65305 | 37 ft | 12 kts | 125° |
| 2026-04-23 17:42 | -6.11954 | 106.65376 | 37 ft | 12 kts | 102° |
| 2026-04-23 17:42 | -6.11933 | 106.65455 | 37 ft | 12 kts | 68° |
| 2026-04-23 17:43 | -6.11920 | 106.65506 | 37 ft | 7 kts | 112° |
| 2026-04-23 17:43 | -6.11967 | 106.65506 | 36 ft | 7 kts | 196° |
| 2026-04-23 17:43 | -6.11986 | 106.65500 | 37 ft | 2 kts | 197° |
| 2026-04-23 17:43 | -6.11992 | 106.65498 | 37 ft | 0 kts | 197° |
| 2026-04-23 17:44 | -6.11993 | 106.65498 | 37 ft | 0 kts | 197° |
| 2026-04-23 17:44 | -6.11994 | 106.65498 | 37 ft | 0 kts | 197° |
| 2026-04-23 17:44 | -6.11992 | 106.65498 | 37 ft | 0 kts | 197° |